sensor_id;sensor_type;location;lat;lon;timestamp;temperature;humidity
42187;DHT22;27858;51.414;0.018;2022-12-18T00:01:23;1.20;99.90
42187;DHT22;27858;51.414;0.018;2022-12-18T00:03:52;1.10;99.90
42187;DHT22;27858;51.414;0.018;2022-12-18T00:06:20;1.10;99.90
42187;DHT22;27858;51.414;0.018;2022-12-18T00:08:48;1.10;99.90
42187;DHT22;27858;51.414;0.018;2022-12-18T00:11:17;1.00;99.90
42187;DHT22;27858;51.414;0.018;2022-12-18T00:13:44;1.10;99.90
42187;DHT22;27858;51.414;0.018;2022-12-18T00:16:16;1.00;99.90
42187;DHT22;27858;51.414;0.018;2022-12-18T00:18:45;1.00;99.90
42187;DHT22;27858;51.414;0.018;2022-12-18T00:21:13;1.00;99.90
42187;DHT22;27858;51.414;0.018;2022-12-18T00:23:41;1.10;99.90
42187;DHT22;27858;51.414;0.018;2022-12-18T00:26:14;1.10;99.90
42187;DHT22;27858;51.414;0.018;2022-12-18T00:28:43;1.00;99.90
42187;DHT22;27858;51.414;0.018;2022-12-18T00:31:13;1.10;99.90
42187;DHT22;27858;51.414;0.018;2022-12-18T00:33:40;1.00;99.90
42187;DHT22;27858;51.414;0.018;2022-12-18T00:36:11;1.10;99.90
42187;DHT22;27858;51.414;0.018;2022-12-18T00:38:39;1.10;99.90
42187;DHT22;27858;51.414;0.018;2022-12-18T00:41:07;1.10;99.90
42187;DHT22;27858;51.414;0.018;2022-12-18T00:43:35;1.00;99.90
42187;DHT22;27858;51.414;0.018;2022-12-18T00:46:02;1.00;99.90
42187;DHT22;27858;51.414;0.018;2022-12-18T00:48:31;1.00;99.90
42187;DHT22;27858;51.414;0.018;2022-12-18T00:50:58;0.90;99.90
42187;DHT22;27858;51.414;0.018;2022-12-18T00:53:25;1.00;99.90
42187;DHT22;27858;51.414;0.018;2022-12-18T00:55:51;1.00;99.90
42187;DHT22;27858;51.414;0.018;2022-12-18T00:58:18;1.00;99.90
42187;DHT22;27858;51.414;0.018;2022-12-18T01:00:45;1.00;99.90
42187;DHT22;27858;51.414;0.018;2022-12-18T01:03:13;1.00;99.90
42187;DHT22;27858;51.414;0.018;2022-12-18T01:05:41;1.00;99.90
42187;DHT22;27858;51.414;0.018;2022-12-18T01:08:09;0.90;99.90
42187;DHT22;27858;51.414;0.018;2022-12-18T01:10:36;0.90;99.90
42187;DHT22;27858;51.414;0.018;2022-12-18T01:13:06;0.90;99.90
42187;DHT22;27858;51.414;0.018;2022-12-18T01:15:32;1.00;99.90
42187;DHT22;27858;51.414;0.018;2022-12-18T01:17:59;0.80;99.90
42187;DHT22;27858;51.414;0.018;2022-12-18T01:20:26;0.80;99.90
42187;DHT22;27858;51.414;0.018;2022-12-18T01:22:52;0.80;99.90
42187;DHT22;27858;51.414;0.018;2022-12-18T01:25:19;0.70;99.90
42187;DHT22;27858;51.414;0.018;2022-12-18T01:27:46;0.70;99.90
42187;DHT22;27858;51.414;0.018;2022-12-18T01:30:13;0.70;99.90
42187;DHT22;27858;51.414;0.018;2022-12-18T01:32:39;0.60;99.90
42187;DHT22;27858;51.414;0.018;2022-12-18T01:35:07;0.60;99.90
42187;DHT22;27858;51.414;0.018;2022-12-18T01:37:34;0.50;99.90
42187;DHT22;27858;51.414;0.018;2022-12-18T01:40:00;0.60;99.90
42187;DHT22;27858;51.414;0.018;2022-12-18T01:42:27;0.50;99.90
42187;DHT22;27858;51.414;0.018;2022-12-18T01:45:05;0.50;99.90
42187;DHT22;27858;51.414;0.018;2022-12-18T01:47:51;0.50;99.90
42187;DHT22;27858;51.414;0.018;2022-12-18T01:50:21;0.50;99.90
42187;DHT22;27858;51.414;0.018;2022-12-18T01:53:16;0.50;99.90
42187;DHT22;27858;51.414;0.018;2022-12-18T01:55:49;0.50;99.90
42187;DHT22;27858;51.414;0.018;2022-12-18T01:58:17;0.50;99.90
42187;DHT22;27858;51.414;0.018;2022-12-18T02:00:45;0.50;99.90
42187;DHT22;27858;51.414;0.018;2022-12-18T02:03:13;0.30;99.90
42187;DHT22;27858;51.414;0.018;2022-12-18T02:05:50;0.50;99.90
42187;DHT22;27858;51.414;0.018;2022-12-18T02:16:25;0.40;99.90
42187;DHT22;27858;51.414;0.018;2022-12-18T02:18:59;0.40;99.90
42187;DHT22;27858;51.414;0.018;2022-12-18T02:21:54;0.40;99.90
42187;DHT22;27858;51.414;0.018;2022-12-18T02:24:38;0.40;99.90
42187;DHT22;27858;51.414;0.018;2022-12-18T02:27:09;0.40;99.90
42187;DHT22;27858;51.414;0.018;2022-12-18T02:29:41;0.50;99.90
42187;DHT22;27858;51.414;0.018;2022-12-18T02:32:15;0.40;99.90
42187;DHT22;27858;51.414;0.018;2022-12-18T02:34:44;0.50;99.90
42187;DHT22;27858;51.414;0.018;2022-12-18T02:37:15;0.50;99.90
42187;DHT22;27858;51.414;0.018;2022-12-18T02:39:44;0.40;99.90
42187;DHT22;27858;51.414;0.018;2022-12-18T02:42:13;0.40;99.90
42187;DHT22;27858;51.414;0.018;2022-12-18T02:44:49;0.40;99.90
42187;DHT22;27858;51.414;0.018;2022-12-18T02:47:23;0.40;99.90
42187;DHT22;27858;51.414;0.018;2022-12-18T02:50:07;0.30;99.90
42187;DHT22;27858;51.414;0.018;2022-12-18T02:55:23;0.30;99.90
42187;DHT22;27858;51.414;0.018;2022-12-18T03:00:52;0.20;99.90
42187;DHT22;27858;51.414;0.018;2022-12-18T03:05:56;0.20;99.90
42187;DHT22;27858;51.414;0.018;2022-12-18T03:08:28;0.10;99.90
42187;DHT22;27858;51.414;0.018;2022-12-18T03:11:09;0.20;99.90
42187;DHT22;27858;51.414;0.018;2022-12-18T03:13:48;0.10;99.90
42187;DHT22;27858;51.414;0.018;2022-12-18T03:16:24;0.20;99.90
42187;DHT22;27858;51.414;0.018;2022-12-18T03:18:56;0.10;99.90
42187;DHT22;27858;51.414;0.018;2022-12-18T03:21:26;0.20;99.90
42187;DHT22;27858;51.414;0.018;2022-12-18T03:23:55;0.20;99.90
42187;DHT22;27858;51.414;0.018;2022-12-18T03:26:24;0.20;99.90
42187;DHT22;27858;51.414;0.018;2022-12-18T03:29:00;0.10;99.90
42187;DHT22;27858;51.414;0.018;2022-12-18T03:31:29;0.30;99.90
42187;DHT22;27858;51.414;0.018;2022-12-18T03:34:01;0.20;99.90
42187;DHT22;27858;51.414;0.018;2022-12-18T03:36:29;0.20;99.90
42187;DHT22;27858;51.414;0.018;2022-12-18T03:38:57;0.30;99.90
42187;DHT22;27858;51.414;0.018;2022-12-18T03:41:38;0.30;99.90
42187;DHT22;27858;51.414;0.018;2022-12-18T03:47:20;0.40;99.90
42187;DHT22;27858;51.414;0.018;2022-12-18T03:50:11;0.30;99.90
42187;DHT22;27858;51.414;0.018;2022-12-18T03:55:34;0.30;99.90
42187;DHT22;27858;51.414;0.018;2022-12-18T03:58:03;0.30;99.90
42187;DHT22;27858;51.414;0.018;2022-12-18T04:00:32;0.20;99.90
42187;DHT22;27858;51.414;0.018;2022-12-18T04:03:00;0.30;99.90
42187;DHT22;27858;51.414;0.018;2022-12-18T04:05:28;0.20;99.90
42187;DHT22;27858;51.414;0.018;2022-12-18T04:07:56;0.30;99.90
42187;DHT22;27858;51.414;0.018;2022-12-18T04:10:24;0.30;99.90
42187;DHT22;27858;51.414;0.018;2022-12-18T04:12:55;0.20;99.90
42187;DHT22;27858;51.414;0.018;2022-12-18T04:15:22;0.30;99.90
42187;DHT22;27858;51.414;0.018;2022-12-18T04:17:50;0.20;99.90
42187;DHT22;27858;51.414;0.018;2022-12-18T04:20:17;0.40;99.90
42187;DHT22;27858;51.414;0.018;2022-12-18T04:22:44;0.40;99.90
42187;DHT22;27858;51.414;0.018;2022-12-18T04:25:11;0.30;99.90
42187;DHT22;27858;51.414;0.018;2022-12-18T04:27:38;0.40;99.90
42187;DHT22;27858;51.414;0.018;2022-12-18T04:30:06;0.50;99.90
42187;DHT22;27858;51.414;0.018;2022-12-18T04:32:34;0.50;99.90
42187;DHT22;27858;51.414;0.018;2022-12-18T04:35:01;0.50;99.90
42187;DHT22;27858;51.414;0.018;2022-12-18T04:37:28;0.50;99.90
42187;DHT22;27858;51.414;0.018;2022-12-18T04:39:55;0.50;99.90
42187;DHT22;27858;51.414;0.018;2022-12-18T04:42:22;0.50;99.90
42187;DHT22;27858;51.414;0.018;2022-12-18T04:44:49;0.50;99.90
42187;DHT22;27858;51.414;0.018;2022-12-18T04:47:16;0.50;99.90
42187;DHT22;27858;51.414;0.018;2022-12-18T04:49:43;0.50;99.90
42187;DHT22;27858;51.414;0.018;2022-12-18T04:52:10;0.60;99.90
42187;DHT22;27858;51.414;0.018;2022-12-18T04:54:37;0.60;99.90
42187;DHT22;27858;51.414;0.018;2022-12-18T04:57:04;0.70;99.90
42187;DHT22;27858;51.414;0.018;2022-12-18T04:59:31;0.70;99.90
42187;DHT22;27858;51.414;0.018;2022-12-18T05:01:58;0.70;99.90
42187;DHT22;27858;51.414;0.018;2022-12-18T05:04:25;0.80;99.90
42187;DHT22;27858;51.414;0.018;2022-12-18T05:06:51;0.90;99.90
42187;DHT22;27858;51.414;0.018;2022-12-18T05:09:18;0.90;99.90
42187;DHT22;27858;51.414;0.018;2022-12-18T05:11:45;1.00;99.90
42187;DHT22;27858;51.414;0.018;2022-12-18T05:14:13;0.90;99.90
42187;DHT22;27858;51.414;0.018;2022-12-18T05:16:40;0.90;99.90
42187;DHT22;27858;51.414;0.018;2022-12-18T05:19:07;1.00;99.90
42187;DHT22;27858;51.414;0.018;2022-12-18T05:21:34;0.90;99.90
42187;DHT22;27858;51.414;0.018;2022-12-18T05:24:01;1.00;99.90
42187;DHT22;27858;51.414;0.018;2022-12-18T05:26:28;1.00;99.90
42187;DHT22;27858;51.414;0.018;2022-12-18T05:28:54;1.10;99.90
42187;DHT22;27858;51.414;0.018;2022-12-18T05:31:21;1.00;99.90
42187;DHT22;27858;51.414;0.018;2022-12-18T05:33:48;1.10;99.90
42187;DHT22;27858;51.414;0.018;2022-12-18T05:36:15;1.10;99.90
42187;DHT22;27858;51.414;0.018;2022-12-18T05:38:42;1.10;99.90
42187;DHT22;27858;51.414;0.018;2022-12-18T05:41:09;1.20;99.90
42187;DHT22;27858;51.414;0.018;2022-12-18T05:43:38;1.10;99.90
42187;DHT22;27858;51.414;0.018;2022-12-18T05:46:08;1.30;99.90
42187;DHT22;27858;51.414;0.018;2022-12-18T05:48:35;1.30;99.90
42187;DHT22;27858;51.414;0.018;2022-12-18T05:51:11;1.20;99.90
42187;DHT22;27858;51.414;0.018;2022-12-18T05:53:38;1.30;99.90
42187;DHT22;27858;51.414;0.018;2022-12-18T05:56:09;1.20;99.90
42187;DHT22;27858;51.414;0.018;2022-12-18T05:58:37;1.30;99.90
42187;DHT22;27858;51.414;0.018;2022-12-18T06:01:12;1.20;99.90
42187;DHT22;27858;51.414;0.018;2022-12-18T06:03:39;1.40;99.90
42187;DHT22;27858;51.414;0.018;2022-12-18T06:06:24;1.30;99.90
42187;DHT22;27858;51.414;0.018;2022-12-18T06:08:52;1.40;99.90
42187;DHT22;27858;51.414;0.018;2022-12-18T06:11:22;1.30;99.90
42187;DHT22;27858;51.414;0.018;2022-12-18T06:13:51;1.40;99.90
42187;DHT22;27858;51.414;0.018;2022-12-18T06:16:24;1.40;99.90
42187;DHT22;27858;51.414;0.018;2022-12-18T06:18:51;1.40;99.90
42187;DHT22;27858;51.414;0.018;2022-12-18T06:21:18;1.30;99.90
42187;DHT22;27858;51.414;0.018;2022-12-18T06:23:45;1.30;99.90
42187;DHT22;27858;51.414;0.018;2022-12-18T06:26:13;1.40;99.90
42187;DHT22;27858;51.414;0.018;2022-12-18T06:28:40;1.40;99.90
42187;DHT22;27858;51.414;0.018;2022-12-18T06:31:08;1.50;99.90
42187;DHT22;27858;51.414;0.018;2022-12-18T06:33:36;1.50;99.90
42187;DHT22;27858;51.414;0.018;2022-12-18T06:36:10;1.40;99.90
42187;DHT22;27858;51.414;0.018;2022-12-18T06:38:40;1.50;99.90
42187;DHT22;27858;51.414;0.018;2022-12-18T06:41:12;1.40;99.90
42187;DHT22;27858;51.414;0.018;2022-12-18T06:43:39;1.50;99.90
42187;DHT22;27858;51.414;0.018;2022-12-18T06:46:07;1.60;99.90
42187;DHT22;27858;51.414;0.018;2022-12-18T06:48:35;1.60;99.90
42187;DHT22;27858;51.414;0.018;2022-12-18T06:51:02;1.50;99.90
42187;DHT22;27858;51.414;0.018;2022-12-18T06:53:29;1.60;99.90
42187;DHT22;27858;51.414;0.018;2022-12-18T06:56:05;1.60;99.90
42187;DHT22;27858;51.414;0.018;2022-12-18T06:58:36;1.60;99.90
42187;DHT22;27858;51.414;0.018;2022-12-18T07:01:05;1.60;99.90
42187;DHT22;27858;51.414;0.018;2022-12-18T07:03:32;1.60;99.90
42187;DHT22;27858;51.414;0.018;2022-12-18T07:05:59;1.60;99.90
42187;DHT22;27858;51.414;0.018;2022-12-18T07:08:26;1.60;99.90
42187;DHT22;27858;51.414;0.018;2022-12-18T07:10:52;1.70;99.90
42187;DHT22;27858;51.414;0.018;2022-12-18T07:13:22;1.70;99.90
42187;DHT22;27858;51.414;0.018;2022-12-18T07:15:49;1.80;99.90
42187;DHT22;27858;51.414;0.018;2022-12-18T07:18:16;1.70;99.90
42187;DHT22;27858;51.414;0.018;2022-12-18T07:20:42;1.70;99.90
42187;DHT22;27858;51.414;0.018;2022-12-18T07:23:09;1.70;99.90
42187;DHT22;27858;51.414;0.018;2022-12-18T07:25:36;1.80;99.90
42187;DHT22;27858;51.414;0.018;2022-12-18T07:28:04;1.80;99.90
42187;DHT22;27858;51.414;0.018;2022-12-18T07:30:30;1.70;99.90
42187;DHT22;27858;51.414;0.018;2022-12-18T07:32:57;1.70;99.90
42187;DHT22;27858;51.414;0.018;2022-12-18T07:35:24;1.80;99.90
42187;DHT22;27858;51.414;0.018;2022-12-18T07:37:51;1.80;99.90
42187;DHT22;27858;51.414;0.018;2022-12-18T07:40:18;1.70;99.90
42187;DHT22;27858;51.414;0.018;2022-12-18T07:42:44;1.70;99.90
42187;DHT22;27858;51.414;0.018;2022-12-18T07:45:11;1.80;99.90
42187;DHT22;27858;51.414;0.018;2022-12-18T07:47:38;1.80;99.90
42187;DHT22;27858;51.414;0.018;2022-12-18T07:50:06;1.80;99.90
42187;DHT22;27858;51.414;0.018;2022-12-18T07:52:33;1.80;99.90
42187;DHT22;27858;51.414;0.018;2022-12-18T07:54:59;1.90;99.90
42187;DHT22;27858;51.414;0.018;2022-12-18T07:57:26;1.90;99.90
42187;DHT22;27858;51.414;0.018;2022-12-18T08:00:13;1.80;99.90
42187;DHT22;27858;51.414;0.018;2022-12-18T08:02:40;1.70;99.90
42187;DHT22;27858;51.414;0.018;2022-12-18T08:05:08;1.80;99.90
42187;DHT22;27858;51.414;0.018;2022-12-18T08:07:35;1.70;99.90
42187;DHT22;27858;51.414;0.018;2022-12-18T08:10:01;1.70;99.90
42187;DHT22;27858;51.414;0.018;2022-12-18T08:12:29;1.80;99.90
42187;DHT22;27858;51.414;0.018;2022-12-18T08:14:56;1.70;99.90
42187;DHT22;27858;51.414;0.018;2022-12-18T08:17:22;1.80;99.90
42187;DHT22;27858;51.414;0.018;2022-12-18T08:19:49;1.70;99.90
42187;DHT22;27858;51.414;0.018;2022-12-18T08:22:16;1.70;99.90
42187;DHT22;27858;51.414;0.018;2022-12-18T08:24:43;1.80;99.90
42187;DHT22;27858;51.414;0.018;2022-12-18T08:27:09;1.70;99.90
42187;DHT22;27858;51.414;0.018;2022-12-18T08:29:56;1.80;99.90
42187;DHT22;27858;51.414;0.018;2022-12-18T08:32:23;1.90;99.90
42187;DHT22;27858;51.414;0.018;2022-12-18T08:34:50;1.80;99.90
42187;DHT22;27858;51.414;0.018;2022-12-18T08:37:17;1.90;99.90
42187;DHT22;27858;51.414;0.018;2022-12-18T08:39:44;1.90;99.90
42187;DHT22;27858;51.414;0.018;2022-12-18T08:42:11;2.00;99.90
42187;DHT22;27858;51.414;0.018;2022-12-18T08:44:56;2.10;99.90
42187;DHT22;27858;51.414;0.018;2022-12-18T08:47:23;2.10;99.90
42187;DHT22;27858;51.414;0.018;2022-12-18T08:49:49;2.10;99.90
42187;DHT22;27858;51.414;0.018;2022-12-18T08:52:16;2.10;99.90
42187;DHT22;27858;51.414;0.018;2022-12-18T08:54:43;2.20;99.90
42187;DHT22;27858;51.414;0.018;2022-12-18T08:57:10;2.20;99.90
42187;DHT22;27858;51.414;0.018;2022-12-18T08:59:36;2.20;99.90
42187;DHT22;27858;51.414;0.018;2022-12-18T09:02:03;2.20;99.90
42187;DHT22;27858;51.414;0.018;2022-12-18T09:04:30;2.30;99.90
42187;DHT22;27858;51.414;0.018;2022-12-18T09:06:57;2.20;99.90
42187;DHT22;27858;51.414;0.018;2022-12-18T09:09:24;2.40;99.90
42187;DHT22;27858;51.414;0.018;2022-12-18T09:11:50;2.40;99.90
42187;DHT22;27858;51.414;0.018;2022-12-18T09:14:17;2.30;99.90
42187;DHT22;27858;51.414;0.018;2022-12-18T09:16:44;2.30;99.90
42187;DHT22;27858;51.414;0.018;2022-12-18T09:19:11;2.30;99.90
42187;DHT22;27858;51.414;0.018;2022-12-18T09:21:37;2.40;99.90
42187;DHT22;27858;51.414;0.018;2022-12-18T09:24:15;2.40;99.90
42187;DHT22;27858;51.414;0.018;2022-12-18T09:26:43;2.50;99.90
42187;DHT22;27858;51.414;0.018;2022-12-18T09:29:14;2.40;99.90
42187;DHT22;27858;51.414;0.018;2022-12-18T09:31:42;2.40;99.90
42187;DHT22;27858;51.414;0.018;2022-12-18T09:34:08;2.50;99.90
42187;DHT22;27858;51.414;0.018;2022-12-18T09:36:35;2.40;99.90
42187;DHT22;27858;51.414;0.018;2022-12-18T09:39:03;2.50;99.90
42187;DHT22;27858;51.414;0.018;2022-12-18T09:41:53;2.40;99.90
42187;DHT22;27858;51.414;0.018;2022-12-18T09:47:27;2.50;99.90
42187;DHT22;27858;51.414;0.018;2022-12-18T09:49:59;2.50;99.90
42187;DHT22;27858;51.414;0.018;2022-12-18T09:52:33;2.50;99.90
42187;DHT22;27858;51.414;0.018;2022-12-18T09:57:48;2.60;99.90
42187;DHT22;27858;51.414;0.018;2022-12-18T10:00:19;2.60;99.90
42187;DHT22;27858;51.414;0.018;2022-12-18T10:02:47;2.60;99.90
42187;DHT22;27858;51.414;0.018;2022-12-18T10:05:17;2.60;99.90
42187;DHT22;27858;51.414;0.018;2022-12-18T10:08:00;2.60;99.90
42187;DHT22;27858;51.414;0.018;2022-12-18T10:10:46;2.70;99.90
42187;DHT22;27858;51.414;0.018;2022-12-18T10:13:33;2.70;99.90
42187;DHT22;27858;51.414;0.018;2022-12-18T10:19:00;2.70;99.90
42187;DHT22;27858;51.414;0.018;2022-12-18T10:27:31;2.90;99.90
42187;DHT22;27858;51.414;0.018;2022-12-18T10:30:00;2.90;99.90
42187;DHT22;27858;51.414;0.018;2022-12-18T10:32:30;2.80;99.90
42187;DHT22;27858;51.414;0.018;2022-12-18T10:34:57;2.90;99.90
42187;DHT22;27858;51.414;0.018;2022-12-18T10:37:29;2.80;99.90
42187;DHT22;27858;51.414;0.018;2022-12-18T10:40:11;2.90;99.90
42187;DHT22;27858;51.414;0.018;2022-12-18T10:43:04;3.00;99.90
42187;DHT22;27858;51.414;0.018;2022-12-18T10:45:31;3.00;99.90
42187;DHT22;27858;51.414;0.018;2022-12-18T10:47:57;3.00;99.90
42187;DHT22;27858;51.414;0.018;2022-12-18T10:50:36;3.10;99.90
42187;DHT22;27858;51.414;0.018;2022-12-18T10:53:29;3.20;94.70
42187;DHT22;27858;51.414;0.018;2022-12-18T10:55:58;3.30;70.40
42187;DHT22;27858;51.414;0.018;2022-12-18T10:58:36;3.30;53.30
42187;DHT22;27858;51.414;0.018;2022-12-18T11:01:24;3.30;48.10
42187;DHT22;27858;51.414;0.018;2022-12-18T11:06:27;3.30;45.10
42187;DHT22;27858;51.414;0.018;2022-12-18T11:11:25;3.30;42.50
42187;DHT22;27858;51.414;0.018;2022-12-18T11:16:28;3.50;44.60
42187;DHT22;27858;51.414;0.018;2022-12-18T11:19:39;3.60;39.70
42187;DHT22;27858;51.414;0.018;2022-12-18T11:22:33;3.60;36.50
42187;DHT22;27858;51.414;0.018;2022-12-18T11:25:18;3.50;41.20
42187;DHT22;27858;51.414;0.018;2022-12-18T11:28:05;3.50;49.70
42187;DHT22;27858;51.414;0.018;2022-12-18T11:30:34;3.60;57.40
42187;DHT22;27858;51.414;0.018;2022-12-18T11:35:53;3.60;75.10
42187;DHT22;27858;51.414;0.018;2022-12-18T11:38:24;3.60;83.30
42187;DHT22;27858;51.414;0.018;2022-12-18T11:41:02;3.70;93.90
42187;DHT22;27858;51.414;0.018;2022-12-18T11:43:59;3.70;95.00
42187;DHT22;27858;51.414;0.018;2022-12-18T11:46:37;3.70;96.90
42187;DHT22;27858;51.414;0.018;2022-12-18T11:49:12;3.80;99.90
42187;DHT22;27858;51.414;0.018;2022-12-18T11:51:58;3.70;99.90
42187;DHT22;27858;51.414;0.018;2022-12-18T11:54:26;3.80;99.90
42187;DHT22;27858;51.414;0.018;2022-12-18T11:56:58;3.70;99.90
42187;DHT22;27858;51.414;0.018;2022-12-18T12:13:28;3.80;99.90
42187;DHT22;27858;51.414;0.018;2022-12-18T12:16:17;3.70;99.90
42187;DHT22;27858;51.414;0.018;2022-12-18T12:19:30;3.70;99.90
42187;DHT22;27858;51.414;0.018;2022-12-18T12:22:22;3.70;99.90
42187;DHT22;27858;51.414;0.018;2022-12-18T12:25:03;3.60;99.90
42187;DHT22;27858;51.414;0.018;2022-12-18T12:27:55;3.80;99.90
42187;DHT22;27858;51.414;0.018;2022-12-18T12:33:20;3.90;99.90
42187;DHT22;27858;51.414;0.018;2022-12-18T12:38:27;3.80;99.90
42187;DHT22;27858;51.414;0.018;2022-12-18T12:40:58;3.80;99.90
42187;DHT22;27858;51.414;0.018;2022-12-18T12:43:47;3.90;99.90
42187;DHT22;27858;51.414;0.018;2022-12-18T12:46:19;3.80;99.90
42187;DHT22;27858;51.414;0.018;2022-12-18T12:48:49;3.70;99.90
42187;DHT22;27858;51.414;0.018;2022-12-18T12:51:21;3.70;99.90
42187;DHT22;27858;51.414;0.018;2022-12-18T12:53:49;3.80;99.90
42187;DHT22;27858;51.414;0.018;2022-12-18T12:56:18;3.80;99.90
42187;DHT22;27858;51.414;0.018;2022-12-18T13:04:10;3.70;99.90
42187;DHT22;27858;51.414;0.018;2022-12-18T13:09:17;3.80;99.90
42187;DHT22;27858;51.414;0.018;2022-12-18T13:11:46;3.70;99.90
42187;DHT22;27858;51.414;0.018;2022-12-18T13:14:36;3.70;99.90
42187;DHT22;27858;51.414;0.018;2022-12-18T13:20:13;3.70;99.90
42187;DHT22;27858;51.414;0.018;2022-12-18T13:22:47;3.80;99.90
42187;DHT22;27858;51.414;0.018;2022-12-18T13:38:35;3.80;99.90
42187;DHT22;27858;51.414;0.018;2022-12-18T13:41:21;3.70;99.90
42187;DHT22;27858;51.414;0.018;2022-12-18T13:44:13;3.80;99.90
42187;DHT22;27858;51.414;0.018;2022-12-18T13:46:49;3.80;99.90
42187;DHT22;27858;51.414;0.018;2022-12-18T13:51:56;3.70;99.90
42187;DHT22;27858;51.414;0.018;2022-12-18T13:54:33;3.80;99.90
42187;DHT22;27858;51.414;0.018;2022-12-18T13:57:01;3.90;99.90
42187;DHT22;27858;51.414;0.018;2022-12-18T13:59:39;3.70;99.90
42187;DHT22;27858;51.414;0.018;2022-12-18T14:02:25;3.80;99.90
42187;DHT22;27858;51.414;0.018;2022-12-18T14:04:53;3.70;99.90
42187;DHT22;27858;51.414;0.018;2022-12-18T14:09:55;3.80;99.90
42187;DHT22;27858;51.414;0.018;2022-12-18T14:12:38;3.90;99.90
42187;DHT22;27858;51.414;0.018;2022-12-18T14:18:56;3.80;99.90
42187;DHT22;27858;51.414;0.018;2022-12-18T14:20:55;3.90;99.90
42187;DHT22;27858;51.414;0.018;2022-12-18T14:25:58;3.90;99.90
42187;DHT22;27858;51.414;0.018;2022-12-18T14:28:31;3.80;99.90
42187;DHT22;27858;51.414;0.018;2022-12-18T14:30:58;3.80;99.90
42187;DHT22;27858;51.414;0.018;2022-12-18T14:33:27;3.80;99.90
42187;DHT22;27858;51.414;0.018;2022-12-18T14:35:56;3.80;99.90
42187;DHT22;27858;51.414;0.018;2022-12-18T14:41:02;4.00;99.90
42187;DHT22;27858;51.414;0.018;2022-12-18T14:43:33;4.00;99.90
42187;DHT22;27858;51.414;0.018;2022-12-18T14:46:01;3.80;99.90
42187;DHT22;27858;51.414;0.018;2022-12-18T14:48:42;4.00;99.90
42187;DHT22;27858;51.414;0.018;2022-12-18T14:51:22;4.10;99.90
42187;DHT22;27858;51.414;0.018;2022-12-18T14:54:03;3.90;99.90
42187;DHT22;27858;51.414;0.018;2022-12-18T14:56:35;4.00;99.90
42187;DHT22;27858;51.414;0.018;2022-12-18T14:59:17;3.90;99.90
42187;DHT22;27858;51.414;0.018;2022-12-18T15:04:39;4.00;99.90
42187;DHT22;27858;51.414;0.018;2022-12-18T15:07:17;4.20;99.90
42187;DHT22;27858;51.414;0.018;2022-12-18T15:10:31;4.00;99.90
42187;DHT22;27858;51.414;0.018;2022-12-18T15:18:12;4.10;99.90
42187;DHT22;27858;51.414;0.018;2022-12-18T15:20:42;4.10;99.90
42187;DHT22;27858;51.414;0.018;2022-12-18T15:23:31;4.20;99.90
42187;DHT22;27858;51.414;0.018;2022-12-18T15:26:04;4.20;99.90
42187;DHT22;27858;51.414;0.018;2022-12-18T15:36:15;4.40;99.90
42187;DHT22;27858;51.414;0.018;2022-12-18T15:38:53;4.40;99.90
42187;DHT22;27858;51.414;0.018;2022-12-18T15:41:22;4.50;99.90
42187;DHT22;27858;51.414;0.018;2022-12-18T15:43:51;4.60;99.90
42187;DHT22;27858;51.414;0.018;2022-12-18T15:46:21;4.60;99.90
42187;DHT22;27858;51.414;0.018;2022-12-18T15:48:52;4.50;99.90
42187;DHT22;27858;51.414;0.018;2022-12-18T15:51:51;4.60;99.90
42187;DHT22;27858;51.414;0.018;2022-12-18T15:54:19;4.50;99.90
42187;DHT22;27858;51.414;0.018;2022-12-18T15:57:10;4.50;99.90
42187;DHT22;27858;51.414;0.018;2022-12-18T15:59:50;4.80;99.90
42187;DHT22;27858;51.414;0.018;2022-12-18T16:02:20;4.70;99.90
42187;DHT22;27858;51.414;0.018;2022-12-18T16:04:47;4.90;99.90
42187;DHT22;27858;51.414;0.018;2022-12-18T16:07:14;5.00;99.90
42187;DHT22;27858;51.414;0.018;2022-12-18T16:09:50;4.70;99.90
42187;DHT22;27858;51.414;0.018;2022-12-18T16:12:20;4.80;99.90
42187;DHT22;27858;51.414;0.018;2022-12-18T16:14:47;4.90;99.90
42187;DHT22;27858;51.414;0.018;2022-12-18T16:17:15;4.90;99.90
42187;DHT22;27858;51.414;0.018;2022-12-18T16:19:42;5.00;99.90
42187;DHT22;27858;51.414;0.018;2022-12-18T16:22:26;5.20;99.90
42187;DHT22;27858;51.414;0.018;2022-12-18T16:24:55;5.10;99.90
42187;DHT22;27858;51.414;0.018;2022-12-18T16:27:23;4.90;99.90
42187;DHT22;27858;51.414;0.018;2022-12-18T16:29:53;5.00;99.90
42187;DHT22;27858;51.414;0.018;2022-12-18T16:32:21;5.10;99.90
42187;DHT22;27858;51.414;0.018;2022-12-18T16:34:50;5.10;99.90
42187;DHT22;27858;51.414;0.018;2022-12-18T16:37:17;5.40;99.90
42187;DHT22;27858;51.414;0.018;2022-12-18T16:39:43;5.50;99.90
42187;DHT22;27858;51.414;0.018;2022-12-18T16:42:14;5.60;99.90
42187;DHT22;27858;51.414;0.018;2022-12-18T16:44:43;5.50;99.90
42187;DHT22;27858;51.414;0.018;2022-12-18T16:47:10;5.40;99.90
42187;DHT22;27858;51.414;0.018;2022-12-18T16:49:41;5.60;99.90
42187;DHT22;27858;51.414;0.018;2022-12-18T16:52:08;5.70;99.90
42187;DHT22;27858;51.414;0.018;2022-12-18T16:54:35;5.60;99.90
42187;DHT22;27858;51.414;0.018;2022-12-18T16:57:02;5.70;99.90
42187;DHT22;27858;51.414;0.018;2022-12-18T16:59:30;5.90;99.90
42187;DHT22;27858;51.414;0.018;2022-12-18T17:01:57;5.90;99.90
42187;DHT22;27858;51.414;0.018;2022-12-18T17:04:24;5.80;99.90
42187;DHT22;27858;51.414;0.018;2022-12-18T17:06:51;6.20;99.90
42187;DHT22;27858;51.414;0.018;2022-12-18T17:09:20;6.00;99.90
42187;DHT22;27858;51.414;0.018;2022-12-18T17:11:56;6.10;99.90
42187;DHT22;27858;51.414;0.018;2022-12-18T17:14:23;5.90;99.90
42187;DHT22;27858;51.414;0.018;2022-12-18T17:16:54;6.30;99.90
42187;DHT22;27858;51.414;0.018;2022-12-18T17:19:42;6.00;99.90
42187;DHT22;27858;51.414;0.018;2022-12-18T17:22:09;6.30;99.90
42187;DHT22;27858;51.414;0.018;2022-12-18T17:24:35;6.30;99.90
42187;DHT22;27858;51.414;0.018;2022-12-18T17:27:03;6.50;99.90
42187;DHT22;27858;51.414;0.018;2022-12-18T17:29:30;6.50;99.90
42187;DHT22;27858;51.414;0.018;2022-12-18T17:31:57;6.30;99.90
42187;DHT22;27858;51.414;0.018;2022-12-18T17:34:26;6.40;99.90
42187;DHT22;27858;51.414;0.018;2022-12-18T17:36:53;6.40;99.90
42187;DHT22;27858;51.414;0.018;2022-12-18T17:39:20;6.40;99.90
42187;DHT22;27858;51.414;0.018;2022-12-18T17:41:48;6.30;99.90
42187;DHT22;27858;51.414;0.018;2022-12-18T17:44:17;6.70;99.90
42187;DHT22;27858;51.414;0.018;2022-12-18T17:46:44;6.60;99.90
42187;DHT22;27858;51.414;0.018;2022-12-18T17:49:12;6.70;99.90
42187;DHT22;27858;51.414;0.018;2022-12-18T17:51:39;6.60;99.90
42187;DHT22;27858;51.414;0.018;2022-12-18T17:54:09;6.50;99.90
42187;DHT22;27858;51.414;0.018;2022-12-18T17:56:39;6.60;99.90
42187;DHT22;27858;51.414;0.018;2022-12-18T17:59:06;6.80;99.90
42187;DHT22;27858;51.414;0.018;2022-12-18T18:01:35;6.50;99.90
42187;DHT22;27858;51.414;0.018;2022-12-18T18:04:09;6.70;99.90
42187;DHT22;27858;51.414;0.018;2022-12-18T18:06:37;6.70;99.90
42187;DHT22;27858;51.414;0.018;2022-12-18T18:09:08;6.60;99.90
42187;DHT22;27858;51.414;0.018;2022-12-18T18:11:43;6.80;99.90